| time (UTC) | temp F | wind direction | speed knots | gust knots | rain 1hr in | rain 24hr in | rain mn in | humidity % | barometer mb |
| 20260903221543 | 78 | 114 | 0.0 | 1.7 | 0.00 | 0.63 | 0.30 | 79 | 1011.6 |
| 20260903220041 | 78 | 154 | 0.0 | 1.7 | 0.00 | 0.63 | 0.30 | 79 | 1012.0 |
| 20260903214543 | 78 | 154 | 0.0 | 1.7 | 0.00 | 0.63 | 0.30 | 77 | 1011.9 |
| 20260903213049 | 78 | 211 | 0.0 | 2.6 | 0.00 | 0.63 | 0.30 | 76 | 1011.7 |
| 20260903211537 | 79 | 164 | 0.0 | 2.6 | 0.00 | 0.63 | 0.30 | 75 | 1011.5 |
| 20260903210035 | 79 | 118 | 0.0 | 2.6 | 0.00 | 0.63 | 0.30 | 75 | 1011.7 |
| 20260903204533 | 80 | 167 | 0.9 | 2.6 | 0.00 | 0.63 | 0.30 | 74 | 1011.7 |
| 20260903203045 | 80 | 178 | 0.0 | 2.6 | 0.00 | 0.63 | 0.30 | 74 | 1011.8 |
| 20260903201535 | 80 | 246 | 0.0 | 3.5 | 0.00 | 0.63 | 0.30 | 74 | 1011.9 |
| 20260903200027 | 80 | 131 | 0.0 | 3.5 | 0.00 | 0.63 | 0.30 | 72 | 1012.2 |
| 20260903194526 | 80 | 162 | 0.9 | 2.6 | 0.00 | 0.63 | 0.30 | 74 | 1012.1 |
| 20260903193034 | 81 | 284 | 0.9 | 3.5 | 0.00 | 0.63 | 0.30 | 69 | 1012.2 |
| 20260903191524 | 80 | 147 | 0.9 | 3.5 | 0.00 | 0.63 | 0.30 | 70 | 1012.4 |
| 20260903190022 | 81 | 250 | 1.7 | 3.5 | 0.00 | 0.63 | 0.30 | 69 | 1012.6 |
| 20260903184520 | 81 | 338 | 0.0 | 3.5 | 0.00 | 0.63 | 0.30 | 69 | 1012.7 |
| 20260903183019 | 81 | 103 | 1.7 | 4.3 | 0.00 | 0.63 | 0.30 | 68 | 1012.9 |
| 20260903181518 | 81 | 306 | 0.9 | 3.5 | 0.00 | 0.63 | 0.30 | 68 | 1013.0 |
| 20260903180022 | 80 | 273 | 0.9 | 6.1 | 0.00 | 0.63 | 0.30 | 71 | 1013.2 |
| 20260903174513 | 80 | 188 | 0.0 | 5.2 | 0.00 | 0.63 | 0.30 | 72 | 1013.1 |
| 20260903173012 | 79 | 304 | 0.9 | 4.3 | 0.00 | 0.63 | 0.30 | 70 | 1013.3 |
| 20260903171511 | 80 | 219 | 0.9 | 4.3 | 0.00 | 0.63 | 0.30 | 69 | 1013.4 |
| 20260903170016 | 79 | 244 | 0.9 | 3.5 | 0.00 | 0.63 | 0.30 | 73 | 1013.4 |
| 20260903164509 | 78 | 275 | 0.0 | 2.6 | 0.00 | 0.64 | 0.30 | 78 | 1013.6 |
| 20260903163002 | 76 | 192 | 1.7 | 4.3 | 0.00 | 0.64 | 0.30 | 79 | 1013.9 |
| 20260903161600 | 75 | 165 | 0.9 | 4.3 | 0.00 | 0.64 | 0.30 | 81 | 1014.2 |
| 20260903160058 | 74 | 281 | 1.7 | 4.3 | 0.00 | 0.64 | 0.30 | 83 | 1014.5 |
| 20260903154557 | 73 | 176 | 0.9 | 2.6 | 0.00 | 0.64 | 0.30 | 88 | 1014.4 |
| 20260903153050 | 69 | 184 | 0.0 | 2.6 | 0.00 | 0.64 | 0.30 | 95 | 1014.5 |
| 20260903151547 | 68 | 151 | 0.9 | 2.6 | 0.00 | 0.64 | 0.30 | 95 | 1014.5 |
| 20260903150047 | 68 | 86 | 0.0 | 2.6 | 0.00 | 0.64 | 0.30 | 95 | 1014.8 |
| 20260903144547 | 67 | 220 | 0.0 | 3.5 | 0.00 | 0.64 | 0.30 | 95 | 1015.2 |
| 20260903143048 | 67 | 217 | 0.9 | 5.2 | 0.00 | 0.64 | 0.30 | 95 | 1015.1 |
| 20260903141544 | 67 | 355 | 0.9 | 2.6 | 0.00 | 0.64 | 0.30 | 96 | 1015.1 |
| 20260903140046 | 67 | 204 | 0.9 | 2.6 | 0.00 | 0.64 | 0.30 | 96 | 1014.8 |
| 20260903134541 | 67 | 262 | 0.9 | 2.6 | 0.00 | 0.64 | 0.30 | 96 | 1014.6 |
| 20260903133045 | 67 | 63 | 0.0 | 3.5 | 0.00 | 0.64 | 0.30 | 97 | 1014.4 |
| 20260903131539 | 67 | 163 | 0.0 | 2.6 | 0.00 | 0.64 | 0.30 | 97 | 1014.3 |
| 20260903130043 | 66 | 175 | 0.9 | 1.7 | 0.00 | 0.64 | 0.30 | 97 | 1014.4 |
| 20260903124537 | 66 | 200 | 0.0 | 1.7 | 0.00 | 0.64 | 0.30 | 97 | 1014.2 |
| 20260903123035 | 66 | 204 | 0.0 | 0.9 | 0.00 | 0.64 | 0.30 | 97 | 1014.2 |
| 20260903121537 | 66 | 204 | 0.0 | 1.7 | 0.00 | 0.64 | 0.30 | 97 | 1013.8 |
| 20260903120050 | 65 | 204 | 0.0 | 1.7 | 0.00 | 0.64 | 0.30 | 96 | 1013.9 |
| 20260903114531 | 65 | 204 | 0.0 | 1.7 | 0.00 | 0.64 | 0.30 | 96 | 1014.2 |
| 20260903113057 | 65 | 204 | 0.0 | 1.7 | 0.00 | 0.64 | 0.30 | 96 | 1014.1 |
| 20260903111529 | 65 | 204 | 0.0 | 1.7 | 0.00 | 0.64 | 0.30 | 96 | 1013.3 |
| 20260903110028 | 65 | 204 | 0.9 | 1.7 | 0.01 | 0.64 | 0.30 | 96 | 1014.0 |
| 20260903104542 | 65 | 204 | 0.0 | 1.7 | 0.01 | 0.64 | 0.30 | 96 | 1014.6 |
| 20260903103031 | 65 | 204 | 0.0 | 1.7 | 0.01 | 0.64 | 0.30 | 96 | 1014.9 |
| 20260903101528 | 65 | 138 | 0.9 | 1.7 | 0.01 | 0.64 | 0.30 | 96 | 1015.1 |
| 20260903100033 | 64 | 193 | 0.0 | 1.7 | 0.00 | 0.63 | 0.28 | 96 | 1015.0 |
| 20260903094542 | 64 | 193 | 0.0 | 0.9 | 0.00 | 0.63 | 0.28 | 96 | 1015.2 |
| 20260903093023 | 64 | 193 | 0.0 | 1.7 | 0.00 | 0.63 | 0.28 | 96 | 1015.0 |
| 20260903091533 | 64 | 193 | 0.0 | 1.7 | 0.00 | 0.63 | 0.28 | 96 | 1014.5 |
| 20260903090022 | 64 | 221 | 0.9 | 2.6 | 0.00 | 0.63 | 0.28 | 96 | 1014.3 |
| 20260903084520 | 64 | 177 | 0.0 | 1.7 | 0.00 | 0.63 | 0.28 | 96 | 1014.4 |
| 20260903083018 | 64 | 177 | 0.0 | 0.9 | 0.01 | 0.63 | 0.28 | 96 | 1014.5 |
| 20260903081518 | 64 | 177 | 0.0 | 0.9 | 0.04 | 0.63 | 0.28 | 96 | 1014.6 |
| 20260903080018 | 64 | 177 | 0.0 | 1.7 | 0.08 | 0.63 | 0.28 | 96 | 1014.8 |
| 20260903074516 | 64 | 176 | 0.0 | 2.6 | 0.11 | 0.63 | 0.28 | 96 | 1014.4 |
| 20260903073028 | 64 | 204 | 0.9 | 2.6 | 0.12 | 0.62 | 0.28 | 96 | 1014.4 |
| 20260903071518 | 64 | 148 | 0.9 | 2.6 | 0.10 | 0.59 | 0.25 | 96 | 1014.7 |
| 20260903070013 | 64 | 240 | 0.0 | 1.7 | 0.06 | 0.55 | 0.21 | 96 | 1016.1 |
| 20260903064510 | 64 | 234 | 0.9 | 2.6 | 0.03 | 0.52 | 0.18 | 96 | 1016.4 |
| 20260903063011 | 64 | 234 | 0.0 | 0.9 | 0.02 | 0.50 | 0.16 | 96 | 1015.7 |
| 20260903061509 | 64 | 234 | 0.0 | 1.7 | 0.03 | 0.49 | 0.15 | 96 | 1015.3 |
| 20260903060007 | 64 | 338 | 0.0 | 1.7 | 0.05 | 0.49 | 0.15 | 96 | 1015.5 |
| 20260903054505 | 64 | 338 | 0.0 | 1.7 | 0.07 | 0.49 | 0.15 | 96 | 1015.8 |
| 20260903053003 | 64 | 338 | 0.0 | 1.7 | 0.08 | 0.48 | 0.14 | 96 | 1016.1 |
| 20260903051502 | 64 | 338 | 0.0 | 1.7 | 0.09 | 0.46 | 0.12 | 96 | 1016.6 |
| 20260903050001 | 64 | 338 | 0.0 | 1.7 | 0.10 | 0.44 | 0.10 | 96 | 1016.8 |
| 20260903044601 | 64 | 338 | 0.0 | 1.7 | 0.10 | 0.42 | 0.08 | 96 | 1016.5 |
| 20260903043201 | 64 | 338 | 0.0 | 0.9 | 0.13 | 0.40 | 0.06 | 96 | 1016.5 |
| 20260903041602 | 65 | 338 | 0.0 | 0.9 | 0.27 | 0.37 | 0.03 | 96 | 1016.6 |
| 20260903040053 | 65 | 338 | 0.0 | 1.7 | 0.28 | 0.34 | 0.00 | 96 | 1017.4 |
| 20260903034552 | 65 | 338 | 0.0 | 0.9 | 0.30 | 0.32 | 0.32 | 96 | 1017.9 |
| 20260903033053 | 65 | 338 | 0.9 | 1.7 | 0.26 | 0.27 | 0.27 | 96 | 1018.9 |
| 20260903031554 | 65 | 289 | 2.6 | 6.1 | 0.09 | 0.10 | 0.10 | 96 | 1018.5 |
| 20260903030050 | 65 | 165 | 0.9 | 2.6 | 0.04 | 0.05 | 0.05 | 96 | 1017.5 |
| 20260903024549 | 65 | 186 | 0.9 | 2.6 | 0.01 | 0.02 | 0.02 | 96 | 1016.8 |
| 20260903023049 | 65 | 196 | 0.9 | 1.7 | 0.00 | 0.01 | 0.01 | 96 | 1016.8 |
| 20260903021548 | 65 | 196 | 0.0 | 1.7 | 0.00 | 0.01 | 0.01 | 96 | 1016.7 |
| 20260903020048 | 65 | 196 | 0.0 | 1.7 | 0.00 | 0.01 | 0.01 | 96 | 1017.3 |
| 20260903014550 | 65 | 196 | 0.9 | 1.7 | 0.00 | 0.01 | 0.01 | 96 | 1016.9 |
| 20260903013055 | 65 | 198 | 0.0 | 2.6 | 0.00 | 0.01 | 0.01 | 96 | 1017.4 |
| 20260903011546 | 65 | 156 | 0.0 | 1.7 | 0.00 | 0.01 | 0.01 | 96 | 1016.9 |
| 20260903010048 | 65 | 159 | 0.0 | 1.7 | 0.00 | 0.01 | 0.01 | 96 | 1016.5 |
| 20260903004544 | 65 | 159 | 0.0 | 1.7 | 0.00 | 0.01 | 0.01 | 95 | 1016.6 |
| 20260903003045 | 65 | 158 | 0.0 | 1.7 | 0.00 | 0.01 | 0.01 | 95 | 1016.7 |
| 20260903001543 | 65 | 162 | 0.9 | 2.6 | 0.00 | 0.01 | 0.01 | 95 | 1016.7 |
| 20260903000044 | 65 | 163 | 0.0 | 1.7 | 0.00 | 0.01 | 0.01 | 95 | 1016.8 |
| 20260902234548 | 65 | 163 | 0.0 | 1.7 | 0.00 | 0.02 | 0.01 | 95 | 1016.5 |
| 20260902233040 | 65 | 144 | 0.0 | 2.6 | 0.00 | 0.02 | 0.01 | 95 | 1016.2 |
| 20260902231540 | 65 | 252 | 0.9 | 2.6 | 0.00 | 0.02 | 0.01 | 95 | 1016.2 |
| 20260902230040 | 66 | 189 | 0.9 | 2.6 | 0.00 | 0.02 | 0.01 | 95 | 1016.4 |
| 20260902224600 | 66 | 202 | 0.0 | 1.7 | 0.00 | 0.02 | 0.01 | 95 | 1016.6 |
| 20260902223038 | 66 | 188 | 0.0 | 2.6 | 0.00 | 0.02 | 0.01 | 95 | 1016.6 |